createdAt,value
2022-07-29T00:02:26.637Z,50.29
2022-07-29T00:04:53.711Z,50.35
2022-07-29T00:07:20.860Z,50.68
2022-07-29T00:09:51.797Z,50.71
2022-07-29T00:12:25.781Z,50.11
2022-07-29T00:14:54.686Z,50.37
2022-07-29T00:17:21.669Z,49.75
2022-07-29T00:19:48.245Z,49.60
2022-07-29T00:22:14.884Z,49.66
2022-07-29T00:24:41.830Z,50.28
2022-07-29T00:27:08.488Z,50.40
2022-07-29T00:29:35.497Z,50.55
2022-07-29T00:32:03.601Z,50.50
2022-07-29T00:34:48.985Z,50.34
2022-07-29T00:37:15.587Z,50.42
2022-07-29T00:39:42.430Z,50.00
2022-07-29T00:42:09.158Z,50.18
2022-07-29T00:44:40.068Z,49.93
2022-07-29T00:47:07.406Z,50.47
2022-07-29T00:49:35.407Z,50.55
2022-07-29T00:52:06.312Z,50.83
2022-07-29T00:54:34.608Z,50.67
2022-07-29T00:57:01.823Z,50.42
2022-07-29T00:59:34.375Z,50.74
2022-07-29T01:02:02.089Z,50.65
2022-07-29T01:04:30.619Z,50.82
2022-07-29T01:06:57.592Z,50.81
2022-07-29T01:09:40.797Z,51.54
2022-07-29T01:12:13.875Z,51.23
2022-07-29T01:14:41.486Z,51.46
2022-07-29T01:17:15.051Z,51.86
2022-07-29T01:19:56.602Z,52.16
2022-07-29T01:22:34.980Z,53.09
2022-07-29T01:25:26.359Z,53.70
2022-07-29T01:28:27.519Z,53.78
2022-07-29T01:30:55.560Z,53.78
2022-07-29T01:33:45.189Z,53.95
2022-07-29T01:36:15.678Z,54.07
2022-07-29T01:38:46.048Z,54.55
2022-07-29T01:41:18.661Z,55.14
2022-07-29T01:43:54.845Z,55.39
2022-07-29T01:46:29.181Z,55.98
2022-07-29T01:49:07.125Z,56.38
2022-07-29T01:51:41.779Z,56.85
2022-07-29T01:54:43.834Z,56.29
2022-07-29T01:57:15.758Z,56.50
2022-07-29T01:59:44.131Z,56.62
2022-07-29T02:02:14.483Z,57.20
2022-07-29T02:04:43.845Z,58.09
2022-07-29T02:07:14.843Z,58.33
2022-07-29T02:09:43.613Z,57.29
2022-07-29T02:12:12.651Z,57.17
2022-07-29T02:14:46.062Z,57.80
2022-07-29T02:17:14.614Z,58.00
2022-07-29T02:19:43.973Z,58.26
2022-07-29T02:22:12.107Z,58.75
2022-07-29T02:24:41.264Z,58.94
2022-07-29T02:27:09.403Z,59.18
2022-07-29T02:29:38.236Z,59.31
2022-07-29T02:32:06.854Z,61.14
2022-07-29T02:34:35.300Z,62.00
2022-07-29T02:37:03.786Z,62.94
2022-07-29T02:39:31.038Z,63.35
2022-07-29T02:42:05.056Z,63.33
2022-07-29T02:44:34.795Z,62.45
2022-07-29T02:47:12.158Z,62.10
2022-07-29T02:49:57.122Z,61.24
2022-07-29T02:52:32.544Z,61.16
2022-07-29T02:55:20.166Z,60.49
2022-07-29T02:58:02.623Z,59.39
2022-07-29T03:00:31.268Z,58.85
2022-07-29T03:03:01.252Z,58.30
2022-07-29T03:05:28.470Z,59.28
2022-07-29T03:08:07.673Z,59.20
2022-07-29T03:10:35.590Z,58.64
2022-07-29T03:13:02.773Z,58.21
2022-07-29T03:15:30.138Z,57.92
2022-07-29T03:17:57.536Z,57.25
2022-07-29T03:20:24.452Z,56.61
2022-07-29T03:22:51.567Z,56.46
2022-07-29T03:25:20.679Z,56.87
2022-07-29T03:27:48.485Z,56.87
2022-07-29T03:30:18.438Z,56.77
2022-07-29T03:32:48.713Z,57.01
2022-07-29T03:35:17.512Z,56.33
2022-07-29T03:37:45.067Z,56.84
2022-07-29T03:40:19.116Z,56.64
2022-07-29T03:42:47.750Z,56.95
2022-07-29T03:45:18.398Z,56.98
2022-07-29T03:47:50.979Z,57.33
2022-07-29T03:50:21.111Z,56.95
2022-07-29T03:52:49.079Z,57.06
2022-07-29T03:55:16.286Z,56.58
2022-07-29T03:57:45.303Z,56.54
2022-07-29T04:00:12.864Z,57.20
2022-07-29T04:02:41.052Z,56.43
2022-07-29T04:05:12.691Z,56.15
2022-07-29T04:07:39.288Z,56.00
2022-07-29T04:10:06.496Z,56.53
2022-07-29T04:12:33.285Z,57.04
2022-07-29T04:14:59.891Z,57.39
2022-07-29T04:17:26.497Z,56.31
2022-07-29T04:19:53.117Z,56.27
2022-07-29T04:22:19.742Z,55.74
2022-07-29T04:24:46.301Z,56.30
2022-07-29T04:27:13.309Z,55.86
2022-07-29T04:29:56.197Z,55.66
2022-07-29T04:32:25.381Z,55.76
2022-07-29T04:34:52.315Z,56.14
2022-07-29T04:37:19.377Z,56.25
2022-07-29T04:39:46.025Z,56.33
2022-07-29T04:42:12.650Z,56.44
2022-07-29T04:44:42.873Z,56.56
2022-07-29T04:47:10.359Z,56.58
2022-07-29T04:49:39.819Z,57.13
2022-07-29T04:52:07.668Z,57.40
2022-07-29T04:54:34.418Z,58.04
2022-07-29T04:57:01.084Z,57.44
2022-07-29T04:59:28.031Z,57.35
2022-07-29T05:01:54.718Z,56.93
2022-07-29T05:04:21.515Z,56.19
2022-07-29T05:06:48.885Z,56.47
2022-07-29T05:09:15.847Z,56.42
2022-07-29T05:11:42.578Z,56.36
2022-07-29T05:14:09.289Z,56.27
2022-07-29T05:16:36.167Z,56.15
2022-07-29T05:19:03.188Z,55.92
2022-07-29T05:21:29.807Z,55.61
2022-07-29T05:23:56.400Z,55.29
2022-07-29T05:26:23.169Z,55.62
2022-07-29T05:28:50.016Z,55.61
2022-07-29T05:31:16.810Z,55.72
2022-07-29T05:33:43.466Z,55.95
2022-07-29T05:36:10.081Z,55.85
2022-07-29T05:38:37.172Z,55.78
2022-07-29T05:41:04.714Z,56.28
2022-07-29T05:43:31.475Z,56.65
2022-07-29T05:45:58.739Z,55.64
2022-07-29T05:48:25.623Z,55.52
2022-07-29T05:50:52.407Z,56.21
2022-07-29T05:53:20.546Z,56.28
2022-07-29T05:55:48.737Z,56.27
2022-07-29T05:58:15.713Z,55.74
2022-07-29T06:00:42.782Z,55.71
2022-07-29T06:03:09.433Z,55.31
2022-07-29T06:05:36.159Z,55.77
2022-07-29T06:08:02.980Z,56.03
2022-07-29T06:10:29.851Z,55.79
2022-07-29T06:12:56.529Z,55.37
2022-07-29T06:15:23.199Z,55.09
2022-07-29T06:18:00.806Z,54.91
2022-07-29T06:20:32.076Z,55.20
2022-07-29T06:22:59.877Z,55.92
2022-07-29T06:25:30.036Z,55.57
2022-07-29T06:27:57.031Z,54.79
2022-07-29T06:30:23.834Z,55.04
2022-07-29T06:32:50.454Z,54.04
2022-07-29T06:35:38.424Z,53.32
2022-07-29T06:38:04.178Z,53.41
2022-07-29T06:41:03.718Z,53.55
2022-07-29T06:43:34.732Z,53.32
2022-07-29T06:46:03.725Z,51.98
2022-07-29T06:48:30.707Z,52.44
2022-07-29T06:50:57.398Z,52.44
2022-07-29T06:53:24.022Z,51.74
2022-07-29T06:55:50.849Z,53.42
2022-07-29T06:58:18.940Z,52.59
2022-07-29T07:00:56.798Z,52.19
2022-07-29T07:03:23.696Z,51.98
2022-07-29T07:05:50.641Z,52.04
2022-07-29T07:08:17.342Z,51.60
2022-07-29T07:10:44.037Z,51.78
2022-07-29T07:13:10.730Z,51.85
2022-07-29T07:15:39.595Z,51.94
2022-07-29T07:18:07.525Z,52.08
2022-07-29T07:20:35.704Z,51.77
2022-07-29T07:23:02.264Z,52.54
2022-07-29T07:25:29.411Z,52.06
2022-07-29T07:27:56.174Z,52.77
2022-07-29T07:30:22.909Z,52.18
2022-07-29T07:32:49.911Z,52.57
2022-07-29T07:35:16.647Z,51.98
2022-07-29T07:37:43.618Z,52.30
2022-07-29T07:40:12.623Z,52.41
2022-07-29T07:42:45.509Z,52.49
2022-07-29T07:45:15.835Z,53.17
2022-07-29T07:47:43.580Z,53.85
2022-07-29T07:50:16.540Z,53.43
2022-07-29T07:52:53.047Z,52.58
2022-07-29T07:55:20.263Z,52.72
2022-07-29T07:57:47.451Z,53.47
2022-07-29T08:00:16.453Z,53.62
2022-07-29T08:02:46.119Z,53.26
2022-07-29T08:05:17.743Z,53.07
2022-07-29T08:07:47.959Z,52.85
2022-07-29T08:10:36.785Z,52.52
2022-07-29T08:13:08.379Z,52.83
2022-07-29T08:15:36.025Z,52.26
2022-07-29T08:18:08.229Z,53.41
2022-07-29T08:20:36.682Z,52.23
2022-07-29T08:23:03.897Z,51.53
2022-07-29T08:25:30.549Z,52.10
2022-07-29T08:27:57.454Z,52.48
2022-07-29T08:30:24.193Z,52.34
2022-07-29T08:32:55.264Z,52.32
2022-07-29T08:35:24.068Z,51.47
2022-07-29T08:37:51.780Z,52.12
2022-07-29T08:40:18.783Z,52.05
2022-07-29T08:42:45.637Z,52.41
2022-07-29T08:45:13.150Z,52.00
2022-07-29T08:47:40.875Z,51.63
2022-07-29T08:50:09.784Z,51.17
2022-07-29T08:52:41.868Z,50.60
2022-07-29T08:55:10.557Z,51.05
2022-07-29T08:57:39.622Z,50.40
2022-07-29T09:00:19.250Z,49.53
2022-07-29T09:02:52.595Z,49.10
2022-07-29T09:05:20.267Z,49.52
2022-07-29T09:07:48.952Z,49.70
2022-07-29T09:10:15.823Z,49.35
2022-07-29T09:12:42.773Z,49.65
2022-07-29T09:15:10.003Z,50.10
2022-07-29T09:17:48.545Z,50.14
2022-07-29T09:20:18.167Z,50.11
2022-07-29T09:22:49.941Z,49.59
2022-07-29T09:25:33.767Z,48.55
2022-07-29T09:28:11.966Z,48.58
2022-07-29T09:30:57.910Z,47.53
2022-07-29T09:33:32.390Z,47.22
2022-07-29T09:36:07.315Z,46.65
2022-07-29T09:38:36.195Z,45.84
2022-07-29T09:41:06.497Z,46.41
2022-07-29T09:43:34.936Z,45.37
2022-07-29T09:46:12.517Z,45.45
2022-07-29T09:48:39.319Z,45.23
2022-07-29T09:51:07.382Z,45.11
2022-07-29T09:53:35.593Z,45.46
2022-07-29T09:56:02.870Z,45.46
2022-07-29T09:58:29.719Z,45.03
2022-07-29T10:00:57.555Z,44.77
2022-07-29T10:03:25.005Z,44.80
2022-07-29T10:06:09.299Z,43.72
2022-07-29T10:08:36.382Z,42.75
2022-07-29T10:11:14.497Z,41.04
2022-07-29T10:13:42.826Z,41.07
2022-07-29T10:16:10.274Z,42.62
2022-07-29T10:18:39.988Z,43.32
2022-07-29T10:21:08.066Z,42.46
2022-07-29T10:23:46.963Z,42.40
2022-07-29T10:26:15.517Z,41.42
2022-07-29T10:28:42.377Z,41.97
2022-07-29T10:31:18.908Z,41.60
2022-07-29T10:33:53.510Z,41.65
2022-07-29T10:36:43.403Z,40.97
2022-07-29T10:39:26.819Z,42.37
2022-07-29T10:42:09.145Z,40.78
2022-07-29T10:44:36.801Z,40.97
2022-07-29T10:47:04.223Z,40.86
2022-07-29T10:49:31.420Z,41.82
2022-07-29T10:52:06.160Z,40.39
2022-07-29T10:54:54.576Z,40.07
2022-07-29T10:57:52.454Z,38.80
2022-07-29T11:00:28.711Z,39.38
2022-07-29T11:02:57.527Z,39.04
2022-07-29T11:08:19.605Z,38.27
2022-07-29T11:10:48.338Z,37.11
2022-07-29T11:13:51.369Z,36.83
2022-07-29T11:16:23.088Z,36.38
2022-07-29T11:19:14.344Z,36.92
2022-07-29T11:21:55.162Z,37.43
2022-07-29T11:24:29.164Z,37.29
2022-07-29T11:27:20.051Z,36.66
2022-07-29T11:29:54.049Z,36.65
2022-07-29T11:32:23.439Z,35.77
2022-07-29T11:35:17.040Z,36.42
2022-07-29T11:37:52.735Z,35.28
2022-07-29T11:40:23.711Z,34.97
2022-07-29T11:42:52.080Z,35.56
2022-07-29T11:45:44.361Z,35.75
2022-07-29T11:48:31.682Z,37.49
2022-07-29T11:50:59.647Z,37.14
2022-07-29T11:53:29.246Z,37.41
2022-07-29T11:56:17.008Z,38.39
2022-07-29T11:58:43.843Z,38.61
2022-07-29T12:01:15.132Z,38.12
2022-07-29T12:03:43.701Z,38.54
2022-07-29T12:06:17.461Z,38.72
2022-07-29T12:08:45.724Z,38.99
2022-07-29T12:11:21.760Z,38.99
2022-07-29T12:13:49.820Z,38.32
2022-07-29T12:16:29.461Z,38.44
2022-07-29T12:19:02.456Z,38.64
2022-07-29T12:21:31.033Z,38.88
2022-07-29T12:24:05.842Z,39.11
2022-07-29T12:26:37.492Z,38.52
2022-07-29T12:29:11.425Z,38.55
2022-07-29T12:31:45.326Z,39.14
2022-07-29T12:34:14.445Z,37.92
2022-07-29T12:36:43.096Z,38.94
2022-07-29T12:39:11.589Z,40.20
2022-07-29T12:41:38.471Z,39.33
2022-07-29T12:44:05.604Z,39.54
2022-07-29T12:46:32.507Z,39.91
2022-07-29T12:48:59.674Z,40.15
2022-07-29T12:51:33.751Z,39.93
2022-07-29T12:54:08.022Z,39.78
2022-07-29T12:56:44.031Z,39.85
2022-07-29T12:59:20.280Z,40.17
2022-07-29T13:01:51.158Z,40.83
2022-07-29T13:04:32.528Z,39.40
2022-07-29T13:07:09.157Z,39.22
2022-07-29T13:09:49.465Z,38.84
2022-07-29T13:12:16.232Z,39.64
2022-07-29T13:14:48.261Z,38.73
2022-07-29T13:17:21.743Z,36.82
2022-07-29T13:19:53.469Z,36.07
2022-07-29T13:22:25.044Z,35.98
2022-07-29T13:24:59.854Z,35.90
2022-07-29T13:27:29.963Z,35.37
2022-07-29T13:29:59.265Z,36.13
2022-07-29T13:32:28.458Z,36.29
2022-07-29T13:34:57.331Z,36.37
2022-07-29T13:37:24.235Z,36.76
2022-07-29T13:39:51.571Z,35.77
2022-07-29T13:42:20.457Z,35.95
2022-07-29T13:44:47.109Z,34.99
2022-07-29T13:47:13.871Z,34.91
2022-07-29T13:49:40.698Z,34.64
2022-07-29T13:52:08.410Z,33.27
2022-07-29T13:54:42.816Z,33.24
2022-07-29T13:57:11.825Z,33.06
2022-07-29T13:59:40.166Z,34.17
2022-07-29T14:02:07.293Z,34.41
2022-07-29T14:04:34.482Z,34.68
2022-07-29T14:07:03.783Z,34.31
2022-07-29T14:09:41.009Z,33.72
2022-07-29T14:12:09.044Z,34.27
2022-07-29T14:14:37.364Z,35.37
2022-07-29T14:17:04.552Z,34.10
2022-07-29T14:19:33.014Z,33.39
2022-07-29T14:22:00.180Z,32.37
2022-07-29T14:24:27.044Z,32.57
2022-07-29T14:26:53.714Z,33.15
2022-07-29T14:29:20.803Z,34.91
2022-07-29T14:31:47.430Z,35.10
2022-07-29T14:34:14.114Z,35.32
2022-07-29T14:36:40.713Z,34.30
2022-07-29T14:39:08.062Z,35.16
2022-07-29T14:41:34.810Z,35.73
2022-07-29T14:44:04.643Z,35.56
2022-07-29T14:46:31.727Z,37.11
2022-07-29T14:48:58.548Z,36.26
2022-07-29T14:51:25.239Z,36.15
2022-07-29T14:53:59.362Z,36.60
2022-07-29T14:56:46.631Z,36.88
2022-07-29T14:59:12.980Z,37.71
2022-07-29T15:01:39.732Z,36.67
2022-07-29T15:04:06.405Z,37.24
2022-07-29T15:06:32.999Z,38.33
2022-07-29T15:08:59.643Z,41.02
2022-07-29T15:11:26.484Z,42.33
2022-07-29T15:13:53.170Z,42.09
2022-07-29T15:16:19.791Z,43.46
2022-07-29T15:18:46.720Z,43.24
2022-07-29T15:21:13.318Z,43.58
2022-07-29T15:23:40.016Z,44.03
2022-07-29T15:26:06.671Z,44.05
2022-07-29T15:28:33.292Z,43.80
2022-07-29T15:30:59.916Z,44.35
2022-07-29T15:33:26.827Z,44.97
2022-07-29T15:35:54.161Z,45.19
2022-07-29T15:38:20.816Z,44.98
2022-07-29T15:40:55.758Z,45.04
2022-07-29T15:43:22.703Z,44.95
2022-07-29T15:46:08.122Z,45.00
2022-07-29T15:48:39.347Z,45.01
2022-07-29T15:51:06.052Z,44.80
2022-07-29T15:53:33.130Z,45.60
2022-07-29T15:56:02.137Z,46.13
2022-07-29T15:58:29.007Z,46.42
2022-07-29T16:00:55.792Z,46.20
2022-07-29T16:03:22.915Z,46.70
2022-07-29T16:05:49.501Z,45.80
2022-07-29T16:08:16.225Z,45.94
2022-07-29T16:10:42.920Z,45.88
2022-07-29T16:13:09.553Z,45.93
2022-07-29T16:15:36.194Z,45.84
2022-07-29T16:18:02.919Z,45.41
2022-07-29T16:20:30.191Z,45.32
2022-07-29T16:22:57.066Z,45.66
2022-07-29T16:25:38.452Z,45.21
2022-07-29T16:28:10.665Z,44.72
2022-07-29T16:30:37.321Z,45.04
2022-07-29T16:33:08.113Z,45.00
2022-07-29T16:35:39.433Z,45.20
2022-07-29T16:38:06.643Z,44.61
2022-07-29T16:40:33.298Z,44.92
2022-07-29T16:42:59.971Z,44.96
2022-07-29T16:45:26.987Z,45.73
2022-07-29T16:48:01.160Z,45.55
2022-07-29T16:50:31.572Z,46.02
2022-07-29T16:52:58.288Z,45.42
2022-07-29T16:55:25.463Z,45.75
2022-07-29T16:57:54.944Z,45.52
2022-07-29T17:00:23.676Z,44.73
2022-07-29T17:02:50.495Z,44.38
2022-07-29T17:05:17.128Z,44.99
2022-07-29T17:07:43.869Z,45.69
2022-07-29T17:10:10.942Z,46.78
2022-07-29T17:12:39.647Z,47.92
2022-07-29T17:15:08.973Z,49.46
2022-07-29T17:17:39.484Z,49.98
2022-07-29T17:20:22.510Z,50.81
2022-07-29T17:22:49.133Z,51.75
2022-07-29T17:25:20.896Z,52.37
2022-07-29T17:27:50.413Z,52.58
2022-07-29T17:30:17.771Z,52.72
2022-07-29T17:32:44.718Z,52.73
2022-07-29T17:35:30.431Z,52.55
2022-07-29T17:37:57.468Z,52.85
2022-07-29T17:40:24.090Z,52.55
2022-07-29T17:42:50.793Z,53.06
2022-07-29T17:45:17.726Z,52.71
2022-07-29T17:47:45.319Z,53.19
2022-07-29T17:50:12.411Z,53.21
2022-07-29T17:52:39.180Z,53.48
2022-07-29T17:55:07.271Z,53.91
2022-07-29T17:57:34.084Z,53.87
2022-07-29T18:00:00.934Z,54.07
2022-07-29T18:02:28.477Z,54.00
2022-07-29T18:04:55.324Z,54.66
2022-07-29T18:07:21.958Z,54.28
2022-07-29T18:09:48.609Z,54.35
2022-07-29T18:12:15.204Z,54.21
2022-07-29T18:14:42.134Z,54.78
2022-07-29T18:17:08.819Z,55.00
2022-07-29T18:19:35.438Z,55.02
2022-07-29T18:22:05.452Z,55.49
2022-07-29T18:24:32.580Z,55.34
2022-07-29T18:26:59.559Z,56.39
2022-07-29T18:29:28.956Z,56.58
2022-07-29T18:31:56.164Z,57.19
2022-07-29T18:34:22.763Z,57.78
2022-07-29T18:36:49.576Z,58.23
2022-07-29T18:39:20.338Z,59.08
2022-07-29T18:41:49.845Z,59.27
2022-07-29T18:44:19.439Z,61.22
2022-07-29T18:46:48.945Z,61.61
2022-07-29T18:49:15.686Z,62.88
2022-07-29T18:51:43.092Z,64.33
2022-07-29T18:54:10.473Z,64.35
2022-07-29T18:56:37.417Z,64.50
2022-07-29T18:59:04.642Z,65.11
2022-07-29T19:01:32.288Z,64.29
2022-07-29T19:03:59.381Z,64.64
2022-07-29T19:06:26.245Z,64.74
2022-07-29T19:08:53.315Z,64.88
2022-07-29T19:11:19.909Z,64.87
2022-07-29T19:13:46.510Z,65.25
2022-07-29T19:16:14.046Z,65.43
2022-07-29T19:18:41.294Z,66.16
2022-07-29T19:21:07.909Z,66.08
2022-07-29T19:24:00.195Z,66.38
2022-07-29T19:26:21.349Z,66.13
2022-07-29T19:28:48.787Z,66.47
2022-07-29T19:31:16.315Z,66.91
2022-07-29T19:33:43.061Z,66.84
2022-07-29T19:36:09.726Z,67.35
2022-07-29T19:38:38.206Z,67.59
2022-07-29T19:41:06.249Z,67.90
2022-07-29T19:43:49.829Z,67.92
2022-07-29T19:46:22.721Z,68.20
2022-07-29T19:48:49.991Z,67.82
2022-07-29T19:51:17.317Z,67.92
2022-07-29T19:53:44.015Z,67.90
2022-07-29T19:56:10.613Z,68.04
2022-07-29T19:58:37.358Z,68.16
2022-07-29T20:01:09.977Z,67.84
2022-07-29T20:03:39.688Z,67.76
2022-07-29T20:06:07.425Z,68.68
2022-07-29T20:08:34.155Z,68.92
2022-07-29T20:11:00.785Z,68.30
2022-07-29T20:13:27.452Z,68.66
2022-07-29T20:15:54.174Z,68.83
2022-07-29T20:18:20.820Z,69.28
2022-07-29T20:20:49.137Z,69.40
2022-07-29T20:23:16.438Z,69.71
2022-07-29T20:25:43.072Z,70.52
2022-07-29T20:28:09.855Z,70.40
2022-07-29T20:30:38.551Z,70.46
2022-07-29T20:33:05.893Z,69.86
2022-07-29T20:35:33.023Z,69.75
2022-07-29T20:38:00.504Z,69.98
2022-07-29T20:40:28.961Z,68.74
2022-07-29T20:42:55.789Z,69.34
2022-07-29T20:45:23.591Z,69.73
2022-07-29T20:47:52.037Z,70.32
2022-07-29T20:50:23.795Z,70.31
2022-07-29T20:52:51.942Z,70.46
2022-07-29T20:55:18.908Z,71.40
2022-07-29T20:57:45.683Z,71.80
2022-07-29T21:00:12.974Z,73.41
2022-07-29T21:02:40.124Z,74.10
2022-07-29T21:05:07.202Z,74.77
2022-07-29T21:07:33.920Z,75.43
2022-07-29T21:10:00.703Z,74.90
2022-07-29T21:12:30.157Z,76.49
2022-07-29T21:14:57.908Z,78.32
2022-07-29T21:17:25.155Z,76.76
2022-07-29T21:19:53.379Z,77.56
2022-07-29T21:22:22.182Z,78.60
2022-07-29T21:24:49.516Z,77.43
2022-07-29T21:27:35.589Z,79.73
2022-07-29T21:30:07.409Z,79.47
2022-07-29T21:32:34.236Z,79.07
2022-07-29T21:35:00.913Z,80.28
2022-07-29T21:37:28.311Z,80.54
2022-07-29T21:39:55.346Z,79.99
2022-07-29T21:42:22.135Z,79.74
2022-07-29T21:44:49.275Z,80.88
2022-07-29T21:47:15.983Z,80.11
2022-07-29T21:49:42.903Z,80.56
2022-07-29T21:52:09.515Z,80.46
2022-07-29T21:54:36.168Z,80.97
2022-07-29T21:57:03.606Z,79.74
2022-07-29T21:59:31.711Z,80.75
2022-07-29T22:02:00.907Z,81.42
2022-07-29T22:04:30.718Z,81.43
2022-07-29T22:06:58.729Z,82.25
2022-07-29T22:09:26.008Z,82.84
2022-07-29T22:11:52.747Z,85.22
2022-07-29T22:14:19.779Z,85.60
2022-07-29T22:16:47.732Z,85.09
2022-07-29T22:19:15.031Z,86.41
2022-07-29T22:21:42.275Z,84.77
2022-07-29T22:24:10.299Z,83.54
2022-07-29T22:26:38.176Z,82.61
2022-07-29T22:29:04.852Z,83.69
2022-07-29T22:31:31.614Z,80.55
2022-07-29T22:33:58.272Z,82.01
2022-07-29T22:36:25.912Z,85.94
2022-07-29T22:38:52.571Z,82.01
2022-07-29T22:41:19.176Z,83.12
2022-07-29T22:43:45.821Z,83.33
2022-07-29T22:46:12.597Z,83.04
2022-07-29T22:48:39.291Z,84.15
2022-07-29T22:51:06.161Z,84.56
2022-07-29T22:53:32.839Z,84.30
2022-07-29T22:55:59.481Z,85.42
2022-07-29T22:58:26.310Z,87.51
2022-07-29T23:00:53.045Z,88.24
2022-07-29T23:03:20.355Z,87.52
2022-07-29T23:05:47.021Z,88.18
2022-07-29T23:08:13.715Z,88.31
2022-07-29T23:10:40.379Z,88.45
2022-07-29T23:13:07.337Z,87.69
2022-07-29T23:15:34.000Z,90.72
2022-07-29T23:18:00.840Z,88.76
2022-07-29T23:20:27.988Z,89.33
2022-07-29T23:22:54.735Z,88.13
2022-07-29T23:25:21.472Z,89.62
2022-07-29T23:27:48.411Z,89.90
2022-07-29T23:30:15.058Z,89.45
2022-07-29T23:32:41.672Z,89.62
2022-07-29T23:35:09.036Z,91.18
2022-07-29T23:37:35.720Z,89.03
2022-07-29T23:40:02.422Z,90.02
2022-07-29T23:42:29.078Z,91.53
2022-07-29T23:44:55.829Z,90.31
2022-07-29T23:47:22.479Z,90.61
2022-07-29T23:49:49.958Z,90.24
2022-07-29T23:52:17.293Z,91.94
2022-07-29T23:54:44.007Z,91.02
2022-07-29T23:57:10.684Z,90.81
2022-07-29T23:59:37.299Z,91.65
